Decoded Metar for KSUS (ST. LOUIS/SPIRIT in MO, USA) (IATA:SUS) | Meteo·Mobile Aviation Weather
aviador You're here:

KSUS Decoded Metar

ST. LOUIS/SPIRIT in MO, USA
Report Time2019-05-19 22:54:00
UTC Time2019-05-19 23:40:05
Flight Rules vfr VFR
Wind270° at 10 kt
W.Decomp.*RWY 26: 9.9 kt HW 1.4 kt RCW
Visibility9999 m
Phenomena:N/A
Clouds:Few 049 Hf
Scattered 070 Hf
Expected CloudBase > 4,000 ft AGL from Temp-Dew spread
CeilingNone
Temp24°C (ISA +10)
Dew Point14°C (54% RH)
AAT21.7°C
QNH1009 hPa
Density Alt1,962 ft
Elevation463 ft
Report Wrong Elevation
Raw Report
KSUS 192254Z 27010KT 10SM FEW049 SCT070 24/14 A2981 RMK AO2 SLP088
T02440139=

Extra information for KSUS:More info

Metar Taf Metar & Taf Last 4 Metars F.Rules Stats Wind Profile Meteogram Temp Stats Airport Information Weather charts Add Link Nearby VenuesMetar ALERT Operation Metar Decoded Social comments

AIRNAV info for KSUS